Time;durP1;ratioP1;P1;durP2;ratioP2;P2;SDS_P1;SDS_P2;PMS_P1;PMS_P2;Temp;Humidity;BMP_temperature;BMP_pressure;BME280_temperature;BME280_humidity;BME280_pressure;Samples;Min_cycle;Max_cycle;Signal;HPM_P1;HPM_P2
2023/09/01 00:03:32;;;;;;;3.53;1.30;;;;;;;15.97;100.00;97742.88;18301571;32;20054;-58
2023/09/01 00:13:35;;;;;;;2.30;1.12;;;;;;;15.97;100.00;97750.25;18287488;32;20387;-58
2023/09/01 00:23:38;;;;;;;2.72;1.40;;;;;;;15.93;100.00;97748.12;18300413;32;20054;-58
2023/09/01 00:33:40;;;;;;;2.03;1.13;;;;;;;15.95;100.00;97755.19;18299921;32;20070;-58
2023/09/01 00:43:43;;;;;;;3.12;1.08;;;;;;;15.95;100.00;97768.84;18285652;32;20058;-58
2023/09/01 00:53:45;;;;;;;3.30;1.08;;;;;;;15.91;100.00;97768.66;18299243;32;20062;-58
2023/09/01 01:03:51;;;;;;;3.17;0.98;;;;;;;15.93;100.00;97769.13;18284594;32;20046;-58
2023/09/01 01:13:58;;;;;;;2.75;1.08;;;;;;;15.91;100.00;97758.53;18298209;32;20102;-57
2023/09/01 01:24:01;;;;;;;2.75;1.15;;;;;;;15.91;100.00;97750.34;18297602;32;20094;-58
2023/09/01 01:34:26;;;;;;;2.47;1.30;;;;;;;15.99;100.00;97750.75;18296172;32;20058;-57
2023/09/01 01:44:39;;;;;;;4.22;1.00;;;;;;;16.05;100.00;97752.28;18270196;32;20366;-58
2023/09/01 01:54:41;;;;;;;1.83;0.93;;;;;;;16.07;100.00;97750.03;18296244;32;20101;-57
2023/09/01 02:04:43;;;;;;;1.37;0.80;;;;;;;16.07;100.00;97748.12;18295895;32;20084;-58
2023/09/01 02:14:46;;;;;;;2.85;0.98;;;;;;;16.04;100.00;97737.03;18295783;32;20113;-58
2023/09/01 02:24:48;;;;;;;1.77;0.80;;;;;;;15.97;100.00;97742.88;18294595;32;20049;-58
2023/09/01 02:34:51;;;;;;;2.45;0.90;;;;;;;15.96;100.00;97743.97;18294030;32;20050;-58
2023/09/01 02:44:54;;;;;;;1.58;0.82;;;;;;;15.97;100.00;97747.53;18294037;32;20042;-58
2023/09/01 02:54:57;;;;;;;3.10;0.87;;;;;;;15.91;100.00;97744.91;18304280;32;20073;-58
2023/09/01 03:04:59;;;;;;;4.37;1.05;;;;;;;15.83;100.00;97748.34;18304310;32;20481;-58
2023/09/01 03:15:02;;;;;;;4.93;1.12;;;;;;;15.82;100.00;97754.09;18303824;32;20494;-58
2023/09/01 03:25:09;;;;;;;2.45;1.05;;;;;;;15.74;100.00;97733.75;18289898;32;20043;-58
2023/09/01 03:35:12;;;;;;;1.70;1.08;;;;;;;15.59;100.00;97735.69;18303287;32;20430;-58
2023/09/01 03:45:15;;;;;;;3.85;1.15;;;;;;;15.40;100.00;97745.81;18302371;32;20390;-58
2023/09/01 03:55:17;;;;;;;3.25;1.10;;;;;;;15.24;100.00;97737.13;18288716;32;20097;-58
2023/09/01 04:05:23;;;;;;;2.42;1.20;;;;;;;15.09;100.00;97732.75;18287938;32;20054;-58
2023/09/01 04:15:25;;;;;;;6.53;1.35;;;;;;;14.96;100.00;97737.00;18301406;32;20058;-58
2023/09/01 04:25:27;;;;;;;4.93;1.12;;;;;;;14.80;100.00;97739.19;18300461;32;20105;-58
2023/09/01 04:35:30;;;;;;;3.75;1.40;;;;;;;14.66;100.00;97738.31;18286064;32;20398;-58
2023/09/01 04:45:33;;;;;;;5.40;1.30;;;;;;;14.54;100.00;97753.13;18299781;32;20098;-58
2023/09/01 04:55:36;;;;;;;2.22;1.35;;;;;;;14.47;100.00;97747.25;18299093;32;20058;-58
2023/09/01 05:05:39;;;;;;;2.90;1.20;;;;;;;14.39;100.00;97758.81;18272195;32;20373;-58
2023/09/01 05:15:42;;;;;;;1.87;1.37;;;;;;;14.36;100.00;97767.53;18297083;32;20073;-58
2023/09/01 05:25:51;;;;;;;3.53;1.17;;;;;;;14.37;100.00;97750.09;18283745;32;20049;-58
2023/09/01 05:35:53;;;;;;;2.12;1.33;;;;;;;14.43;100.00;97751.66;18296898;32;20058;-58
2023/09/01 05:45:56;;;;;;;2.53;1.40;;;;;;;14.61;100.00;97769.09;18296665;32;20387;-58
2023/09/01 05:55:59;;;;;;;4.83;1.20;;;;;;;14.80;100.00;97769.13;18295907;32;20066;-58
2023/09/01 06:06:02;;;;;;;1.92;0.98;;;;;;;15.01;100.00;97769.63;18282193;32;20461;-58
2023/09/01 06:16:05;;;;;;;3.45;1.17;;;;;;;15.11;100.00;97786.91;18295179;32;20110;-57
2023/09/01 06:26:07;;;;;;;2.20;1.40;;;;;;;15.12;100.00;97794.78;18294338;32;20050;-58
2023/09/01 06:36:12;;;;;;;2.65;1.25;;;;;;;15.21;100.00;97787.56;18293960;32;20450;-58
2023/09/01 06:46:15;;;;;;;4.45;1.05;;;;;;;15.55;100.00;97796.50;18294116;32;20118;-58
2023/09/01 06:56:18;;;;;;;1.27;0.80;;;;;;;16.09;100.00;97805.13;18280177;32;20509;-58
2023/09/01 07:06:21;;;;;;;1.30;1.00;;;;;;;16.59;100.00;97807.91;18293142;32;20046;-58
2023/09/01 07:16:24;;;;;;;1.00;0.82;;;;;;;16.78;100.00;97805.00;18278994;32;20106;-58
2023/09/01 07:26:26;;;;;;;2.23;1.00;;;;;;;17.21;100.00;97803.81;18292420;32;20106;-58
2023/09/01 07:36:29;;;;;;;2.08;1.30;;;;;;;18.02;100.00;97801.22;18283800;32;20511;-58
2023/09/01 07:46:33;;;;;;;1.12;0.90;;;;;;;18.51;100.00;97802.00;18302327;32;20110;-58
2023/09/01 07:56:36;;;;;;;1.98;0.98;;;;;;;18.43;100.00;97805.53;18302072;32;20054;-58
2023/09/01 08:06:38;;;;;;;1.67;1.20;;;;;;;18.64;100.00;97813.97;18301511;32;20095;-58
2023/09/01 08:16:41;;;;;;;1.10;0.98;;;;;;;18.99;100.00;97808.53;18300785;32;20490;-58
2023/09/01 08:26:44;;;;;;;1.67;1.00;;;;;;;19.35;100.00;97815.63;18300499;32;20054;-58
2023/09/01 08:36:48;;;;;;;2.30;1.12;;;;;;;19.97;100.00;97800.66;18299658;32;20110;-58
2023/09/01 08:46:57;;;;;;;1.73;1.00;;;;;;;20.29;100.00;97808.59;18285000;32;20072;-58
2023/09/01 08:57:03;;;;;;;2.42;1.20;;;;;;;20.41;100.00;97796.91;18285676;32;20076;-58
2023/09/01 09:07:15;;;;;;;1.67;1.00;;;;;;;20.74;100.00;97799.00;18285387;32;20046;-58
2023/09/01 09:17:20;;;;;;;2.08;1.37;;;;;;;21.08;100.00;97802.62;18284524;32;20442;-58
2023/09/01 09:27:25;;;;;;;1.73;0.80;;;;;;;21.47;100.00;97808.75;18297651;32;20054;-58
2023/09/01 09:37:28;;;;;;;2.22;1.05;;;;;;;21.81;100.00;97798.53;18296842;32;20054;-58
2023/09/01 09:47:33;;;;;;;2.25;1.15;;;;;;;21.94;100.00;97800.19;18296417;32;20053;-58
2023/09/01 09:57:41;;;;;;;2.87;1.37;;;;;;;22.12;100.00;97800.78;18295587;32;20070;-58
2023/09/01 10:07:45;;;;;;;1.77;1.08;;;;;;;22.30;100.00;97801.34;18295548;32;20080;-58
2023/09/01 10:17:50;;;;;;;1.98;1.05;;;;;;;22.51;100.00;97792.19;18295293;32;20101;-58
2023/09/01 10:28:01;;;;;;;2.83;1.30;;;;;;;22.83;100.00;97789.59;18294652;32;20050;-58
2023/09/01 10:38:33;;;;;;;2.50;1.00;;;;;;;23.41;100.00;97786.56;18293886;32;20058;-59
2023/09/01 10:48:52;;;;;;;1.30;0.90;;;;;;;24.04;100.00;97785.06;18273047;32;20062;-58
2023/09/01 10:58:56;;;;;;;2.87;1.10;;;;;;;24.52;100.00;97780.28;18293335;32;20062;-58
2023/09/01 11:09:03;;;;;;;2.80;1.08;;;;;;;24.58;100.00;97778.03;18296969;32;20441;-59
2023/09/01 11:19:07;;;;;;;0.93;0.68;;;;;;;24.70;100.00;97766.09;18303922;32;20121;-58
2023/09/01 11:29:12;;;;;;;2.37;1.10;;;;;;;24.99;100.00;97753.66;18290055;32;20054;-58
2023/09/01 11:39:15;;;;;;;1.00;0.75;;;;;;;25.63;100.00;97771.91;18276083;32;20126;-58
2023/09/01 11:49:18;;;;;;;0.82;0.62;;;;;;;25.07;85.58;97767.66;18302802;32;20070;-58
2023/09/01 11:59:20;;;;;;;1.35;0.98;;;;;;;25.19;100.00;97756.44;18301789;32;20062;-58
2023/09/01 12:09:23;;;;;;;1.92;1.05;;;;;;;25.69;100.00;97749.06;18301362;32;20077;-58
2023/09/01 12:19:28;;;;;;;2.25;0.70;;;;;;;26.18;94.90;97753.09;18300547;32;20108;-58
2023/09/01 12:29:31;;;;;;;1.45;0.70;;;;;;;25.65;94.40;97753.75;18300434;32;20054;-58
2023/09/01 12:39:36;;;;;;;3.05;0.85;;;;;;;24.99;91.20;97745.34;18299767;32;20095;-58
2023/09/01 12:49:43;;;;;;;1.33;0.85;;;;;;;24.94;100.00;97739.31;18285762;32;20442;-58
2023/09/01 12:59:47;;;;;;;3.28;0.95;;;;;;;25.06;100.00;97743.91;18272777;32;20114;-58
2023/09/01 13:09:49;;;;;;;1.45;0.73;;;;;;;25.10;99.06;97739.25;18298831;32;20055;-58
2023/09/01 13:19:52;;;;;;;3.25;0.80;;;;;;;25.36;100.00;97735.81;18297998;32;20057;-58
2023/09/01 13:29:55;;;;;;;1.92;1.00;;;;;;;26.53;94.17;97726.25;18283087;32;20049;-59
2023/09/01 13:39:59;;;;;;;2.20;1.25;;;;;;;26.32;86.15;97733.09;18283216;32;20094;-59
2023/09/01 13:50:06;;;;;;;1.45;0.75;;;;;;;26.41;99.26;97718.16;18283359;32;20055;-58
2023/09/01 14:00:10;;;;;;;1.75;0.80;;;;;;;26.58;100.00;97717.62;18296102;32;20140;-58
2023/09/01 14:10:15;;;;;;;0.65;0.55;;;;;;;26.65;100.00;97714.16;18269389;32;20050;-58
2023/09/01 14:20:19;;;;;;;1.52;1.00;;;;;;;26.47;100.00;97703.59;18295174;32;20110;-58
2023/09/01 14:30:23;;;;;;;2.10;1.00;;;;;;;26.24;100.00;97698.13;18295061;32;20066;-59
2023/09/01 14:40:27;;;;;;;1.35;0.70;;;;;;;25.86;100.00;97702.69;18294203;32;20092;-58
2023/09/01 14:50:29;;;;;;;1.40;0.90;;;;;;;25.67;100.00;97701.56;18292297;32;20102;-58
2023/09/01 15:00:32;;;;;;;1.55;0.90;;;;;;;25.36;100.00;97695.09;18304708;32;20150;-58
2023/09/01 15:10:35;;;;;;;2.42;1.00;;;;;;;24.97;100.00;97699.84;18304276;32;20094;-58
2023/09/01 15:20:38;;;;;;;1.37;0.82;;;;;;;24.66;100.00;97698.84;18303967;32;20092;-58
2023/09/01 15:30:41;;;;;;;1.83;0.90;;;;;;;24.50;100.00;97696.09;18289740;32;20089;-58
2023/09/01 15:40:43;;;;;;;1.20;0.88;;;;;;;24.22;100.00;97686.03;18302506;32;20355;-58
2023/09/01 15:50:46;;;;;;;2.72;1.00;;;;;;;23.68;100.00;97688.31;18302417;32;20069;-58
2023/09/01 16:01:08;;;;;;;1.77;1.00;;;;;;;23.43;100.00;97682.13;18301310;32;20461;-58
2023/09/01 16:11:28;;;;;;;2.12;1.02;;;;;;;23.24;100.00;97682.84;18301313;32;20508;-58
2023/09/01 16:21:30;;;;;;;1.60;1.00;;;;;;;23.29;100.00;97687.28;18301177;32;20488;-58
2023/09/01 16:31:37;;;;;;;2.35;1.10;;;;;;;23.51;100.00;97685.88;18300274;32;20054;-58
2023/09/01 16:41:41;;;;;;;1.58;0.80;;;;;;;23.16;100.00;97687.38;18299852;32;20066;-58
2023/09/01 16:51:43;;;;;;;;;;;;;;;22.88;100.00;97694.81;18299667;32;20050;-58
2023/09/01 17:01:46;;;;;;;2.93;0.83;;;;;;;22.77;100.00;97697.28;18299353;32;19966;-58
2023/09/01 17:11:51;;;;;;;1.35;0.80;;;;;;;22.67;100.00;97696.59;18297657;32;20049;-58
2023/09/01 17:21:53;;;;;;;2.42;0.80;;;;;;;22.32;100.00;97690.81;18298024;32;20497;-58
2023/09/01 17:31:56;;;;;;;;;;;;;;;21.92;100.00;97688.81;18297780;32;20070;-58
2023/09/01 17:41:59;;;;;;;2.72;0.80;;;;;;;21.57;100.00;97690.06;18296936;32;20005;-58
2023/09/01 17:52:02;;;;;;;1.62;0.70;;;;;;;21.25;100.00;97702.66;18282872;32;20080;-58
2023/09/01 18:02:05;;;;;;;1.27;0.73;;;;;;;20.87;100.00;97699.00;18282890;32;20076;-58
2023/09/01 18:12:08;;;;;;;1.62;0.77;;;;;;;20.49;100.00;97708.16;18295537;32;20070;-58
2023/09/01 18:22:11;;;;;;;1.70;0.80;;;;;;;20.16;100.00;97725.34;18294386;32;20085;-58
2023/09/01 18:32:15;;;;;;;3.40;0.98;;;;;;;19.79;100.00;97733.25;18294808;32;20049;-58
2023/09/01 18:42:36;;;;;;;;;;;;;;;19.51;100.00;97749.31;18294436;32;20394;-58
2023/09/01 18:52:40;;;;;;;4.35;1.12;;;;;;;19.24;100.00;97771.31;18294461;32;19945;-58
2023/09/01 19:02:44;;;;;;;2.67;1.25;;;;;;;18.93;100.00;97780.50;18267439;32;20098;-58
2023/09/01 19:12:52;;;;;;;1.95;1.10;;;;;;;18.68;100.00;97784.00;18293247;32;20370;-58
2023/09/01 19:22:55;;;;;;;3.20;1.33;;;;;;;18.47;100.00;97795.56;18278967;32;20405;-58
2023/09/01 19:33:00;;;;;;;1.57;1.17;;;;;;;18.25;100.00;97789.09;18285032;32;20057;-57
2023/09/01 19:43:07;;;;;;;2.85;1.50;;;;;;;18.02;100.00;97801.22;18302863;32;20421;-57
2023/09/01 19:53:29;;;;;;;2.83;1.70;;;;;;;17.80;100.00;97805.59;18302633;32;20101;-58
2023/09/01 20:03:31;;;;;;;5.57;2.60;;;;;;;17.66;100.00;97804.88;18301889;32;20107;-58
2023/09/01 20:13:36;;;;;;;5.10;2.67;;;;;;;17.50;100.00;97807.19;18287714;32;20354;-58
2023/09/01 20:23:39;;;;;;;2.70;2.03;;;;;;;17.34;100.00;97820.44;18287253;32;20054;-57
2023/09/01 20:33:42;;;;;;;1.50;1.15;;;;;;;17.19;100.00;97822.41;18286942;32;20072;-58
2023/09/01 20:43:45;;;;;;;5.57;2.00;;;;;;;17.09;100.00;97831.66;18299553;32;20106;-57
2023/09/01 20:53:48;;;;;;;3.93;1.70;;;;;;;17.02;100.00;97834.03;18273404;32;20456;-58
2023/09/01 21:03:52;;;;;;;3.35;1.73;;;;;;;16.94;100.00;97843.75;18285297;32;20054;-58
2023/09/01 21:13:54;;;;;;;2.78;1.48;;;;;;;16.87;100.00;97840.59;18298312;32;20076;-58
2023/09/01 21:23:57;;;;;;;4.95;1.42;;;;;;;16.79;100.00;97857.72;18298000;32;20065;-57
2023/09/01 21:33:59;;;;;;;2.30;1.20;;;;;;;16.66;100.00;97855.81;18297583;32;20065;-58
2023/09/01 21:44:04;;;;;;;2.58;1.35;;;;;;;16.51;100.00;97855.03;18296642;32;20423;-58
2023/09/01 21:54:07;;;;;;;3.60;1.20;;;;;;;16.42;100.00;97854.91;18295841;32;20047;-57
2023/09/01 22:04:09;;;;;;;2.75;1.45;;;;;;;16.38;100.00;97850.38;18282178;32;20419;-57
2023/09/01 22:14:12;;;;;;;3.10;1.30;;;;;;;16.34;100.00;97857.56;18295522;32;20057;-58
2023/09/01 22:24:14;;;;;;;3.70;1.80;;;;;;;16.30;100.00;97849.16;18295318;32;20053;-57
2023/09/01 22:34:17;;;;;;;1.65;1.10;;;;;;;16.22;100.00;97858.03;18294732;32;20043;-57
2023/09/01 22:44:19;;;;;;;2.12;1.27;;;;;;;16.04;100.00;97862.47;18281259;32;20058;-57
2023/09/01 22:54:22;;;;;;;5.47;1.37;;;;;;;15.90;100.00;97863.25;18280093;32;20387;-57
2023/09/01 23:04:25;;;;;;;3.33;1.35;;;;;;;15.75;100.00;97877.13;18295955;32;20063;-58
2023/09/01 23:14:27;;;;;;;2.60;1.50;;;;;;;15.65;100.00;97891.75;18304395;32;20058;-57
2023/09/01 23:24:30;;;;;;;2.55;1.20;;;;;;;15.55;100.00;97895.47;18289790;32;20430;-57
2023/09/01 23:34:37;;;;;;;3.83;1.20;;;;;;;15.45;100.00;97890.16;18289507;32;20442;-58
2023/09/01 23:44:40;;;;;;;3.97;1.30;;;;;;;15.35;100.00;97888.41;18302779;32;20120;-58
2023/09/01 23:54:44;;;;;;;6.30;1.70;;;;;;;15.28;100.00;97884.41;18302330;32;20054;-58
